createdAt,value
2022-10-19T00:01:23.519Z,20.45
2022-10-19T00:04:27.500Z,15.45
2022-10-19T00:07:29.448Z,16.50
2022-10-19T00:10:35.241Z,10.73
2022-10-19T00:13:40.196Z,12.77
2022-10-19T00:21:28.370Z,11.43
2022-10-19T00:25:16.734Z,17.08
2022-10-19T00:28:18.965Z,18.98
2022-10-19T00:31:25.091Z,34.40
2022-10-19T00:34:28.936Z,12.60
2022-10-19T00:37:31.240Z,11.30
2022-10-19T00:40:46.166Z,11.38
2022-10-19T00:47:24.727Z,22.38
2022-10-19T00:50:27.951Z,11.98
2022-10-19T00:53:32.649Z,15.32
2022-10-19T00:56:43.759Z,12.85
2022-10-19T00:59:55.205Z,17.98
2022-10-19T01:02:59.747Z,16.02
2022-10-19T01:06:07.640Z,13.65
2022-10-19T01:09:11.048Z,22.80
2022-10-19T01:12:33.279Z,36.75
2022-10-19T01:15:59.806Z,13.18
2022-10-19T01:19:44.500Z,19.13
2022-10-19T01:23:25.089Z,17.90
2022-10-19T01:27:23.177Z,16.27
2022-10-19T01:30:31.585Z,14.63
2022-10-19T01:34:04.442Z,11.82
2022-10-19T01:37:48.271Z,20.20
2022-10-19T01:40:59.788Z,11.48
2022-10-19T01:44:52.191Z,18.15
2022-10-19T01:48:23.475Z,15.30
2022-10-19T01:51:32.094Z,10.10
2022-10-19T01:54:46.994Z,6.13
2022-10-19T01:58:06.239Z,7.53
2022-10-19T02:01:13.386Z,10.88
2022-10-19T02:04:20.211Z,8.93
2022-10-19T02:07:24.924Z,15.02
2022-10-19T02:10:29.108Z,12.25
2022-10-19T02:13:32.593Z,21.58
2022-10-19T02:16:45.330Z,7.70
2022-10-19T02:19:47.329Z,11.02
2022-10-19T02:22:51.209Z,11.52
2022-10-19T02:25:56.189Z,12.98
2022-10-19T02:29:04.860Z,27.00
2022-10-19T02:32:13.837Z,29.38
2022-10-19T02:35:26.139Z,20.10
2022-10-19T02:38:39.962Z,10.90
2022-10-19T02:42:22.125Z,21.95
2022-10-19T02:45:32.735Z,21.17
2022-10-19T02:48:38.831Z,20.73
2022-10-19T02:52:04.478Z,12.60
2022-10-19T02:55:08.211Z,17.27
2022-10-19T02:58:12.174Z,21.95
2022-10-19T03:01:17.335Z,21.23
2022-10-19T03:04:23.703Z,27.10
2022-10-19T03:07:36.249Z,15.18
2022-10-19T03:10:51.079Z,22.25
2022-10-19T03:18:06.525Z,17.75
2022-10-19T03:21:14.153Z,16.27
2022-10-19T03:24:16.314Z,18.05
2022-10-19T03:27:18.288Z,17.08
2022-10-19T03:30:20.348Z,16.38
2022-10-19T03:36:34.001Z,11.18
2022-10-19T03:39:36.208Z,21.80
2022-10-19T03:42:38.243Z,14.88
2022-10-19T03:45:40.384Z,13.55
2022-10-19T03:48:43.073Z,17.52
2022-10-19T03:51:45.107Z,11.70
2022-10-19T03:54:50.994Z,10.77
2022-10-19T03:57:53.113Z,11.45
2022-10-19T04:00:55.117Z,18.15
2022-10-19T04:04:02.755Z,16.17
2022-10-19T04:07:08.651Z,17.50
2022-10-19T04:10:10.632Z,15.45
2022-10-19T04:13:13.535Z,16.58
2022-10-19T04:16:15.551Z,19.52
2022-10-19T04:19:17.643Z,24.63
2022-10-19T04:22:19.709Z,20.83
2022-10-19T04:25:23.255Z,25.48
2022-10-19T04:28:25.381Z,20.60
2022-10-19T04:31:28.680Z,15.30
2022-10-19T04:34:30.714Z,21.00
2022-10-19T04:37:35.099Z,26.27
2022-10-19T04:40:37.851Z,15.38
2022-10-19T04:43:41.180Z,14.60
2022-10-19T04:46:43.694Z,24.15
2022-10-19T04:49:45.707Z,14.23
2022-10-19T04:52:47.764Z,14.80
2022-10-19T04:55:49.911Z,15.10
2022-10-19T04:58:58.143Z,19.85
2022-10-19T05:02:00.257Z,27.67
2022-10-19T05:05:02.530Z,25.85
2022-10-19T05:08:04.906Z,24.02
2022-10-19T05:11:12.634Z,23.52
2022-10-19T05:14:15.010Z,24.53
2022-10-19T05:17:17.255Z,20.83
2022-10-19T05:20:19.764Z,27.67
2022-10-19T05:23:22.334Z,26.92
2022-10-19T05:26:27.552Z,18.73
2022-10-19T05:29:30.325Z,23.20
2022-10-19T05:32:32.658Z,18.23
2022-10-19T05:35:34.705Z,13.70
2022-10-19T05:38:36.715Z,16.90
2022-10-19T05:41:39.237Z,35.83
2022-10-19T05:44:42.098Z,31.13
2022-10-19T05:47:44.837Z,26.00
2022-10-19T05:50:57.188Z,38.97
2022-10-19T05:53:59.610Z,21.05
2022-10-19T05:57:02.771Z,19.42
2022-10-19T06:00:05.486Z,34.92
2022-10-19T06:03:13.830Z,19.88
2022-10-19T06:06:15.877Z,28.17
2022-10-19T06:09:17.914Z,22.13
2022-10-19T06:12:24.246Z,17.60
2022-10-19T06:15:27.202Z,22.05
2022-10-19T06:18:29.797Z,31.80
2022-10-19T06:21:33.921Z,23.00
2022-10-19T06:24:37.353Z,16.98
2022-10-19T06:27:39.586Z,17.52
2022-10-19T06:30:41.954Z,17.88
2022-10-19T06:33:47.281Z,22.60
2022-10-19T06:36:51.347Z,28.40
2022-10-19T06:39:53.512Z,27.08
2022-10-19T06:42:56.476Z,28.25
2022-10-19T06:45:58.562Z,25.23
2022-10-19T06:49:02.060Z,31.15
2022-10-19T06:52:05.929Z,24.75
2022-10-19T06:55:08.523Z,38.80
2022-10-19T06:58:10.479Z,42.55
2022-10-19T07:01:14.271Z,44.88
2022-10-19T07:04:18.006Z,31.45
2022-10-19T07:07:20.116Z,28.02
2022-10-19T07:10:22.279Z,26.33
2022-10-19T07:13:25.646Z,31.10
2022-10-19T07:16:27.660Z,34.10
2022-10-19T07:19:29.689Z,26.27
2022-10-19T07:22:31.765Z,34.63
2022-10-19T07:25:34.103Z,29.38
2022-10-19T07:28:36.186Z,38.70
2022-10-19T07:31:38.291Z,28.45
2022-10-19T07:34:40.397Z,31.13
2022-10-19T07:37:43.745Z,39.22
2022-10-19T07:40:47.461Z,38.15
2022-10-19T07:43:51.520Z,25.13
2022-10-19T07:46:53.675Z,26.27
2022-10-19T07:49:55.839Z,24.52
2022-10-19T07:52:59.063Z,33.90
2022-10-19T07:56:19.023Z,21.70
2022-10-19T07:59:23.617Z,22.35
2022-10-19T08:02:30.909Z,31.08
2022-10-19T08:05:42.452Z,27.98
2022-10-19T08:08:46.525Z,21.75
2022-10-19T08:11:48.849Z,30.45
2022-10-19T08:14:53.179Z,25.13
2022-10-19T08:17:55.396Z,23.58
2022-10-19T08:20:57.842Z,24.95
2022-10-19T08:24:01.020Z,22.63
2022-10-19T08:27:03.140Z,32.15
2022-10-19T08:30:05.545Z,19.35
2022-10-19T08:33:08.504Z,28.10
2022-10-19T08:36:12.124Z,29.58
2022-10-19T08:39:14.828Z,18.45
2022-10-19T08:42:23.512Z,30.17
2022-10-19T08:48:43.939Z,26.75
2022-10-19T08:51:53.944Z,24.27
2022-10-19T08:55:02.893Z,23.45
2022-10-19T08:58:13.732Z,20.52
2022-10-19T09:01:39.833Z,25.88
2022-10-19T09:04:51.175Z,26.77
2022-10-19T09:07:54.919Z,18.77
2022-10-19T09:10:57.993Z,18.73
2022-10-19T09:14:12.153Z,28.30
2022-10-19T09:17:17.419Z,29.38
2022-10-19T09:20:22.558Z,28.25
2022-10-19T09:23:39.951Z,23.23
2022-10-19T09:27:03.008Z,19.85
2022-10-19T09:30:21.916Z,24.25
2022-10-19T09:33:40.338Z,16.33
2022-10-19T09:36:51.190Z,14.00
2022-10-19T09:39:56.109Z,22.33
2022-10-19T09:42:59.389Z,16.33
2022-10-19T09:46:19.378Z,22.00
2022-10-19T09:49:44.555Z,19.08
2022-10-19T09:52:48.634Z,12.43
2022-10-19T09:56:04.854Z,12.52
2022-10-19T09:59:22.255Z,8.20
2022-10-19T10:02:33.481Z,6.43
2022-10-19T10:05:39.546Z,5.63
2022-10-19T10:08:48.983Z,4.95
2022-10-19T10:14:56.150Z,6.78
2022-10-19T10:17:58.780Z,7.82
2022-10-19T10:21:07.997Z,3.55
2022-10-19T10:24:13.052Z,10.15
2022-10-19T10:27:30.230Z,7.43
2022-10-19T10:30:37.631Z,7.63
2022-10-19T10:33:45.148Z,10.95
2022-10-19T10:36:51.378Z,8.35
2022-10-19T10:39:58.965Z,5.78
2022-10-19T10:43:17.506Z,3.78
2022-10-19T10:46:25.515Z,11.32
2022-10-19T10:49:34.505Z,4.15
2022-10-19T10:55:39.798Z,4.97
2022-10-19T10:58:51.356Z,5.18
2022-10-19T11:02:12.326Z,2.97
2022-10-19T11:05:45.584Z,5.28
2022-10-19T11:09:08.082Z,9.00
2022-10-19T11:12:15.926Z,4.88
2022-10-19T11:15:30.922Z,2.00
2022-10-19T11:18:38.175Z,9.57
2022-10-19T11:21:52.185Z,3.00
2022-10-19T11:25:21.498Z,2.85
2022-10-19T11:28:55.796Z,7.00
2022-10-19T11:31:58.498Z,3.67
2022-10-19T11:35:40.680Z,4.45
2022-10-19T11:39:01.980Z,4.43
2022-10-19T11:42:19.662Z,6.10
2022-10-19T11:45:28.903Z,6.25
2022-10-19T11:48:55.001Z,6.07
2022-10-19T11:52:16.149Z,4.07
2022-10-19T11:55:36.840Z,6.22
2022-10-19T11:58:50.705Z,7.63
2022-10-19T12:01:52.693Z,5.80
2022-10-19T12:04:57.409Z,3.17
2022-10-19T12:08:27.173Z,3.92
2022-10-19T12:11:47.946Z,4.90
2022-10-19T12:14:56.019Z,5.97
2022-10-19T12:18:05.143Z,3.83
2022-10-19T12:21:18.228Z,2.88
2022-10-19T12:24:23.467Z,5.07
2022-10-19T12:27:35.950Z,5.07
2022-10-19T12:30:39.739Z,6.72
2022-10-19T12:33:46.720Z,8.70
2022-10-19T12:37:11.104Z,6.57
2022-10-19T12:40:38.660Z,8.18
2022-10-19T12:44:20.968Z,5.97
2022-10-19T12:47:24.954Z,7.65
2022-10-19T12:50:57.268Z,5.10
2022-10-19T12:54:09.797Z,5.95
2022-10-19T12:57:29.024Z,6.68
2022-10-19T13:00:34.189Z,6.20
2022-10-19T13:03:42.698Z,3.80
2022-10-19T13:06:50.350Z,4.65
2022-10-19T13:10:01.662Z,7.10
2022-10-19T13:13:03.993Z,4.70
2022-10-19T13:16:29.172Z,4.80
2022-10-19T13:19:31.997Z,8.27
2022-10-19T13:22:34.222Z,5.65
2022-10-19T13:25:40.742Z,7.55
2022-10-19T13:28:53.449Z,5.97
2022-10-19T13:31:55.661Z,4.97
2022-10-19T13:35:26.850Z,5.20
2022-10-19T13:38:43.974Z,8.02
2022-10-19T13:41:48.974Z,8.15
2022-10-19T13:44:53.223Z,5.43
2022-10-19T13:48:10.915Z,6.57
2022-10-19T13:51:31.124Z,6.57
2022-10-19T13:54:42.413Z,6.53
2022-10-19T13:58:08.242Z,8.32
2022-10-19T14:01:21.553Z,13.35
2022-10-19T14:04:41.516Z,6.40
2022-10-19T14:08:01.696Z,5.20
2022-10-19T14:11:06.550Z,6.60
2022-10-19T14:14:11.996Z,12.77
2022-10-19T14:17:25.555Z,11.35
2022-10-19T14:20:37.747Z,15.23
2022-10-19T14:23:40.614Z,9.15
2022-10-19T14:26:42.699Z,16.08
2022-10-19T14:29:50.906Z,7.22
2022-10-19T14:32:58.042Z,15.65
2022-10-19T14:36:03.373Z,17.63
2022-10-19T14:39:05.965Z,13.82
2022-10-19T14:42:10.768Z,18.27
2022-10-19T14:45:27.562Z,25.15
2022-10-19T14:48:29.615Z,21.80
2022-10-19T14:51:40.607Z,17.20
2022-10-19T14:54:45.585Z,16.13
2022-10-19T14:57:51.779Z,24.30
2022-10-19T15:00:55.169Z,26.85
2022-10-19T15:03:57.340Z,17.30
2022-10-19T15:07:03.688Z,15.25
2022-10-19T15:10:09.654Z,12.20
2022-10-19T15:13:25.291Z,13.82
2022-10-19T15:16:43.335Z,11.57
2022-10-19T15:19:46.149Z,16.67
2022-10-19T15:22:48.211Z,17.95
2022-10-19T15:25:59.951Z,13.35
2022-10-19T15:29:22.328Z,18.58
2022-10-19T15:32:30.050Z,13.95
2022-10-19T15:35:40.587Z,26.17
2022-10-19T15:38:45.617Z,107.00
2022-10-19T15:41:47.742Z,69.80
2022-10-19T15:44:50.199Z,20.30
2022-10-19T15:48:10.278Z,15.02
2022-10-19T15:51:24.161Z,19.13
2022-10-19T15:54:26.183Z,18.27
2022-10-19T15:57:37.551Z,19.58
2022-10-19T16:00:41.192Z,19.65
2022-10-19T16:03:43.585Z,17.98
2022-10-19T16:06:46.840Z,16.65
2022-10-19T16:09:48.803Z,15.98
2022-10-19T16:12:51.286Z,18.70
2022-10-19T16:16:10.490Z,10.70
2022-10-19T16:19:13.448Z,19.35
2022-10-19T16:22:16.818Z,13.45
2022-10-19T16:25:19.161Z,9.77
2022-10-19T16:28:21.187Z,12.05
2022-10-19T16:31:24.240Z,10.60
2022-10-19T16:34:26.125Z,6.53
2022-10-19T16:37:28.316Z,8.13
2022-10-19T16:40:30.479Z,9.30
2022-10-19T16:43:33.052Z,10.50
2022-10-19T16:46:35.071Z,9.65
2022-10-19T16:49:37.219Z,8.98
2022-10-19T16:52:39.333Z,6.97
2022-10-19T16:55:42.146Z,9.02
2022-10-19T16:58:44.356Z,7.43
2022-10-19T17:01:47.139Z,6.00
2022-10-19T17:04:49.130Z,5.25
2022-10-19T17:07:51.060Z,6.97
2022-10-19T17:10:53.114Z,6.70
2022-10-19T17:13:58.955Z,5.43
2022-10-19T17:17:00.971Z,5.50
2022-10-19T17:20:03.357Z,9.00
2022-10-19T17:23:05.363Z,7.70
2022-10-19T17:26:09.141Z,7.10
2022-10-19T17:29:12.778Z,5.07
2022-10-19T17:32:14.950Z,16.20
2022-10-19T17:35:16.896Z,16.10
2022-10-19T17:38:18.976Z,6.53
2022-10-19T17:41:22.296Z,6.15
2022-10-19T17:44:24.314Z,9.30
2022-10-19T17:47:26.428Z,6.88
2022-10-19T17:50:28.533Z,10.10
2022-10-19T17:53:31.646Z,8.48
2022-10-19T17:56:35.013Z,9.30
2022-10-19T17:59:52.057Z,10.65
2022-10-19T18:02:54.900Z,5.97
2022-10-19T18:06:17.399Z,6.90
2022-10-19T18:09:19.559Z,5.03
2022-10-19T18:12:21.769Z,7.03
2022-10-19T18:15:24.741Z,3.97
2022-10-19T18:18:28.367Z,3.78
2022-10-19T18:21:34.920Z,9.90
2022-10-19T18:24:37.217Z,9.25
2022-10-19T18:27:39.654Z,12.65
2022-10-19T18:30:45.146Z,9.10
2022-10-19T18:33:49.456Z,5.57
2022-10-19T18:36:52.712Z,7.22
2022-10-19T18:39:54.784Z,6.07
2022-10-19T18:42:57.112Z,5.53
2022-10-19T18:46:01.102Z,5.55
2022-10-19T18:49:06.023Z,7.00
2022-10-19T18:52:08.716Z,6.93
2022-10-19T18:55:10.979Z,6.63
2022-10-19T18:58:13.055Z,8.10
2022-10-19T19:01:24.160Z,7.45
2022-10-19T19:04:26.424Z,7.32
2022-10-19T19:07:28.529Z,13.18
2022-10-19T19:10:31.377Z,7.75
2022-10-19T19:13:33.771Z,6.55
2022-10-19T19:16:38.106Z,4.18
2022-10-19T19:19:41.403Z,8.25
2022-10-19T19:22:43.369Z,6.30
2022-10-19T19:25:45.585Z,6.22
2022-10-19T19:28:50.752Z,6.30
2022-10-19T19:31:53.697Z,10.98
2022-10-19T19:34:56.326Z,4.68
2022-10-19T19:37:58.359Z,7.55
2022-10-19T19:41:04.652Z,3.13
2022-10-19T19:44:06.709Z,5.18
2022-10-19T19:47:10.229Z,7.20
2022-10-19T19:50:13.349Z,8.60
2022-10-19T19:53:17.815Z,6.10
2022-10-19T19:56:20.954Z,9.52
2022-10-19T19:59:23.079Z,2.10
2022-10-19T20:02:25.197Z,11.40
2022-10-19T20:05:28.805Z,8.35
2022-10-19T20:08:32.036Z,6.72
2022-10-19T20:11:39.642Z,3.83
2022-10-19T20:14:43.977Z,8.48
2022-10-19T20:17:46.247Z,5.88
2022-10-19T20:20:49.329Z,4.50
2022-10-19T20:23:51.751Z,5.47
2022-10-19T20:26:53.819Z,5.20
2022-10-19T20:29:58.769Z,7.35
2022-10-19T20:33:01.090Z,3.15
2022-10-19T20:36:25.772Z,4.60
2022-10-19T20:39:28.178Z,6.32
2022-10-19T20:42:30.310Z,9.90
2022-10-19T20:45:32.481Z,5.07
2022-10-19T20:48:35.102Z,3.72
2022-10-19T20:51:38.569Z,5.88
2022-10-19T20:54:40.561Z,7.63
2022-10-19T20:57:42.679Z,7.07
2022-10-19T21:00:44.771Z,3.92
2022-10-19T21:03:48.271Z,5.78
2022-10-19T21:06:51.847Z,6.30
2022-10-19T21:09:54.794Z,5.00
2022-10-19T21:12:56.884Z,3.97
2022-10-19T21:15:58.890Z,12.27
2022-10-19T21:19:02.884Z,5.05
2022-10-19T21:22:06.408Z,7.15
2022-10-19T21:25:10.137Z,5.00
2022-10-19T21:28:12.347Z,3.40
2022-10-19T21:31:15.615Z,7.80
2022-10-19T21:34:29.187Z,8.30
2022-10-19T21:37:31.177Z,2.65
2022-10-19T21:40:36.970Z,4.20
2022-10-19T21:43:39.011Z,5.63
2022-10-19T21:46:43.641Z,6.13
2022-10-19T21:49:45.761Z,6.25
2022-10-19T21:52:47.786Z,6.18
2022-10-19T21:55:53.824Z,5.47
2022-10-19T21:58:56.431Z,5.22
2022-10-19T22:01:59.914Z,4.20
2022-10-19T22:05:02.562Z,4.88
2022-10-19T22:08:04.810Z,7.78
2022-10-19T22:11:08.385Z,4.88
2022-10-19T22:14:12.528Z,4.00
2022-10-19T22:17:14.677Z,6.13
2022-10-19T22:20:17.950Z,4.40
2022-10-19T22:23:20.171Z,2.90
2022-10-19T22:26:30.812Z,3.17
2022-10-19T22:29:33.088Z,3.55
2022-10-19T22:32:35.256Z,4.93
2022-10-19T22:35:37.456Z,4.03
2022-10-19T22:38:40.839Z,5.22
2022-10-19T22:41:43.809Z,2.72
2022-10-19T22:44:46.170Z,5.22
2022-10-19T22:47:48.267Z,4.07
2022-10-19T22:50:54.295Z,3.08
2022-10-19T22:53:56.400Z,5.32
2022-10-19T22:56:58.465Z,4.13
2022-10-19T23:00:00.444Z,3.05
2022-10-19T23:03:04.514Z,5.00
2022-10-19T23:06:13.103Z,3.22
2022-10-19T23:12:16.894Z,4.65
2022-10-19T23:15:20.140Z,3.50
2022-10-19T23:18:22.447Z,2.90
2022-10-19T23:21:24.470Z,4.40
2022-10-19T23:24:26.530Z,0.88
2022-10-19T23:27:28.540Z,1.98
2022-10-19T23:30:30.719Z,2.78
2022-10-19T23:33:33.294Z,1.83
2022-10-19T23:36:35.218Z,1.20
2022-10-19T23:39:37.208Z,1.27
2022-10-19T23:42:39.226Z,4.05
2022-10-19T23:45:41.278Z,1.95
2022-10-19T23:48:43.715Z,1.20
2022-10-19T23:51:46.015Z,1.63
2022-10-19T23:54:48.142Z,4.10
2022-10-19T23:57:50.150Z,2.13
